Time;durP1;ratioP1;P1;durP2;ratioP2;P2;SDS_P1;SDS_P2;PMS_P1;PMS_P2;Temp;Humidity;BMP_temperature;BMP_pressure;BME280_temperature;BME280_humidity;BME280_pressure;Samples;Min_cycle;Max_cycle;Signal;HPM_P1;HPM_P2
2023/09/17 00:01:50;;;;;;;;;;;;;;;22.61;59.44;100811.88;4194107;28;20305;-74
2023/09/17 00:03:52;;;;;;;;;;;;;;;22.59;59.44;100811.16;4194043;28;20310;-74
2023/09/17 00:05:54;;;;;;;;;;;;;;;22.60;59.31;100808.38;4194217;28;19972;-74
2023/09/17 00:07:56;;;;;;;;;;;;;;;22.53;59.38;100798.28;4196774;28;19928;-74
2023/09/17 00:09:58;;;;;;;;;;;;;;;22.60;59.41;100808.38;4197046;28;19970;-74
2023/09/17 00:12:00;;;;;;;;;;;;;;;22.61;59.17;100811.88;4196585;28;19969;-74
2023/09/17 00:14:01;;;;;;;;;;;;;;;22.59;59.31;100809.34;4196825;28;19924;-74
2023/09/17 00:16:03;;;;;;;;;;;;;;;22.59;59.16;100809.34;4196610;28;19928;-74
2023/09/17 00:18:05;;;;;;;;;;;;;;;22.58;59.43;100801.44;4197075;27;20001;-74
2023/09/17 00:20:10;;;;;;;;;;;;;;;22.58;59.52;100806.81;4196675;27;20342;-74
2023/09/17 00:22:14;;;;;;;;;;;;;;;22.57;59.50;100803.25;4196908;28;20377;-74
2023/09/17 00:24:16;;;;;;;;;;;;;;;22.55;59.33;100797.16;4196801;28;19960;-74
2023/09/17 00:26:18;;;;;;;;;;;;;;;22.55;59.26;100802.53;4178730;28;19925;-74
2023/09/17 00:28:19;;;;;;;;;;;;;;;22.55;59.58;100802.53;4196769;28;19955;-74
2023/09/17 00:30:21;;;;;;;;;;;;;;;22.55;59.39;100805.19;4196740;28;19993;-75
2023/09/17 00:32:23;;;;;;;;;;;;;;;22.55;59.44;100805.19;4196759;28;19973;-74
2023/09/17 00:34:25;;;;;;;;;;;;;;;22.53;59.57;100803.63;4196672;28;20425;-74
2023/09/17 00:36:26;;;;;;;;;;;;;;;22.54;59.42;100806.22;4196647;28;20042;-74
2023/09/17 00:38:28;;;;;;;;;;;;;;;22.54;59.29;100799.97;4196478;28;20292;-74
2023/09/17 00:40:31;;;;;;;;;;;;;;;22.54;59.42;100799.97;4196372;27;20437;-75
2023/09/17 00:42:33;;;;;;;;;;;;;;;22.53;59.40;100799.16;4196436;28;19925;-74
2023/09/17 00:44:35;;;;;;;;;;;;;;;22.53;59.45;100793.78;4196568;28;19925;-74
2023/09/17 00:46:37;;;;;;;;;;;;;;;22.53;59.47;100792.91;4196503;28;20394;-75
2023/09/17 00:48:40;;;;;;;;;;;;;;;22.52;59.60;100791.22;4196477;28;19929;-74
2023/09/17 00:50:41;;;;;;;;;;;;;;;22.52;59.62;100791.22;4196330;28;19931;-74
2023/09/17 00:52:43;;;;;;;;;;;;;;;22.51;59.54;100789.53;4196456;28;19977;-74
2023/09/17 00:54:47;;;;;;;;;;;;;;;22.51;59.51;100789.53;4178747;28;19932;-74
2023/09/17 00:56:50;;;;;;;;;;;;;;;22.48;59.58;100799.53;4196244;28;20041;-75
2023/09/17 00:58:52;;;;;;;;;;;;;;;22.48;59.60;100798.69;4196359;28;19947;-75
2023/09/17 01:00:56;;;;;;;;;;;;;;;22.48;59.52;100802.22;4196328;28;20283;-75
2023/09/17 01:03:02;;;;;;;;;;;;;;;22.46;59.65;100793.44;4196485;28;20340;-74
2023/09/17 01:05:05;;;;;;;;;;;;;;;22.47;59.47;100791.63;4196179;28;19969;-75
2023/09/17 01:07:07;;;;;;;;;;;;;;;22.46;59.72;100793.44;4196347;28;19970;-75
2023/09/17 01:09:09;;;;;;;;;;;;;;;22.47;59.73;100794.31;4196168;28;20028;-75
2023/09/17 01:11:11;;;;;;;;;;;;;;;22.47;59.66;100795.16;4196002;28;19925;-74
2023/09/17 01:13:14;;;;;;;;;;;;;;;22.46;59.55;100796.13;4196238;28;19928;-74
2023/09/17 01:15:16;;;;;;;;;;;;;;;22.47;59.56;100800.50;4196083;28;19959;-75
2023/09/17 01:17:17;;;;;;;;;;;;;;;22.46;59.68;100797.97;4196119;28;19951;-75
2023/09/17 01:19:23;;;;;;;;;;;;;;;22.45;59.63;100799.78;4195236;27;20355;-75
2023/09/17 01:21:51;;;;;;;;;;;;;;;22.44;59.56;100800.78;4195979;28;19932;-75
2023/09/17 01:24:13;;;;;;;;;;;;;;;22.44;59.73;100798.09;4197622;28;20046;-74
2023/09/17 01:26:24;;;;;;;;;;;;;;;22.44;59.34;100799.91;4196012;28;20015;-74
2023/09/17 01:28:26;;;;;;;;;;;;;;;22.42;59.90;100802.72;4178156;28;19978;-75
2023/09/17 01:30:28;;;;;;;;;;;;;;;22.42;59.63;100801.88;4196147;28;19932;-75
2023/09/17 01:32:30;;;;;;;;;;;;;;;22.40;59.70;100796.66;4195882;28;19925;-75
2023/09/17 01:34:39;;;;;;;;;;;;;;;22.40;59.77;100796.66;4195810;28;19924;-75
2023/09/17 01:36:43;;;;;;;;;;;;;;;22.40;59.55;100793.97;4195837;28;19950;-75
2023/09/17 01:38:53;;;;;;;;;;;;;;;22.41;59.78;100808.22;4195343;28;19947;-75
2023/09/17 01:40:54;;;;;;;;;;;;;;;22.41;59.72;100800.19;4195905;28;19925;-76
2023/09/17 01:42:56;;;;;;;;;;;;;;;22.40;59.78;100791.28;4195883;28;20324;-75
2023/09/17 01:44:58;;;;;;;;;;;;;;;22.39;59.86;100797.63;4195813;28;19996;-75
2023/09/17 01:47:01;;;;;;;;;;;;;;;22.38;59.96;100787.88;4195819;28;19976;-75
2023/09/17 01:49:03;;;;;;;;;;;;;;;22.38;59.70;100790.56;4195650;28;19924;-76
2023/09/17 01:51:07;;;;;;;;;;;;;;;22.39;59.53;100791.41;4195839;28;20289;-75
2023/09/17 01:53:11;;;;;;;;;;;;;;;22.39;59.95;100796.78;4195398;28;20007;-75
2023/09/17 01:55:13;;;;;;;;;;;;;;;22.38;59.67;100797.72;4195668;28;19929;-74
2023/09/17 01:57:15;;;;;;;;;;;;;;;22.37;59.60;100799.56;4195585;28;19947;-75
2023/09/17 01:59:16;;;;;;;;;;;;;;;22.37;59.62;100794.22;4195509;28;19932;-74
2023/09/17 02:01:19;;;;;;;;;;;;;;;22.37;59.68;100796.88;4195721;28;19936;-74
2023/09/17 02:03:21;;;;;;;;;;;;;;;22.37;59.61;100791.53;4177794;28;20329;-75
2023/09/17 02:05:25;;;;;;;;;;;;;;;22.37;59.68;100788.84;4211195;28;19924;-74
2023/09/17 02:07:27;;;;;;;;;;;;;;;22.37;59.68;100794.22;4195504;28;19935;-74
2023/09/17 02:09:28;;;;;;;;;;;;;;;22.36;59.73;100797.88;4195084;28;20050;-75
2023/09/17 02:11:30;;;;;;;;;;;;;;;22.36;59.87;100795.19;4195356;28;19931;-74
2023/09/17 02:13:32;;;;;;;;;;;;;;;22.34;59.70;100794.44;4195280;28;20304;-74
2023/09/17 02:15:33;;;;;;;;;;;;;;;22.34;59.93;100794.44;4195336;28;20015;-74
2023/09/17 02:17:35;;;;;;;;;;;;;;;22.35;59.72;100788.13;4195117;28;19925;-74
2023/09/17 02:19:37;;;;;;;;;;;;;;;22.33;59.80;100784.72;4195241;27;20241;-74
2023/09/17 02:21:40;;;;;;;;;;;;;;;22.34;59.76;100781.06;4210744;28;20442;-75
2023/09/17 02:23:41;;;;;;;;;;;;;;;22.33;59.49;100780.22;4194992;28;20296;-74
2023/09/17 02:25:43;;;;;;;;;;;;;;;22.34;59.68;100783.75;4195358;27;20301;-74
2023/09/17 02:27:46;;;;;;;;;;;;;;;22.33;59.32;100780.22;4195252;28;20012;-75
2023/09/17 02:29:48;;;;;;;;;;;;;;;22.33;59.56;100776.66;4195113;28;20550;-74
2023/09/17 02:31:49;;;;;;;;;;;;;;;22.33;59.48;100780.22;4195139;28;19969;-74
2023/09/17 02:33:51;;;;;;;;;;;;;;;22.32;59.57;100774.97;4177526;28;19925;-75
2023/09/17 02:35:53;;;;;;;;;;;;;;;22.31;60.07;100775.97;4195154;28;19925;-74
2023/09/17 02:37:55;;;;;;;;;;;;;;;22.29;59.96;100777.94;4194420;28;19929;-74
2023/09/17 02:39:57;;;;;;;;;;;;;;;22.28;60.08;100776.22;4194929;28;19969;-75
2023/09/17 02:41:59;;;;;;;;;;;;;;;22.28;59.86;100768.19;4195087;28;19929;-74
2023/09/17 02:44:02;;;;;;;;;;;;;;;22.27;59.94;100767.34;4194821;28;19969;-74
2023/09/17 02:46:04;;;;;;;;;;;;;;;22.27;60.10;100767.34;4194846;28;19924;-75
2023/09/17 02:48:06;;;;;;;;;;;;;;;22.26;59.98;100773.69;4195007;28;19924;-74
2023/09/17 02:50:09;;;;;;;;;;;;;;;22.26;60.08;100770.13;4194921;28;20305;-75
2023/09/17 02:52:11;;;;;;;;;;;;;;;22.23;60.23;100770.41;4194575;28;19924;-75
2023/09/17 02:54:13;;;;;;;;;;;;;;;22.20;60.19;100774.19;4194919;28;20286;-75
2023/09/17 02:56:18;;;;;;;;;;;;;;;22.21;60.22;100775.03;4194775;28;19925;-75
2023/09/17 02:58:20;;;;;;;;;;;;;;;22.20;60.08;100770.66;4194720;28;19924;-75
2023/09/17 03:00:22;;;;;;;;;;;;;;;22.22;60.14;100774.06;4194822;28;19950;-74
2023/09/17 03:02:24;;;;;;;;;;;;;;;22.22;60.03;100772.22;4194682;28;19931;-75
2023/09/17 03:04:30;;;;;;;;;;;;;;;22.20;60.08;100766.16;4194594;27;19932;-75
2023/09/17 03:06:33;;;;;;;;;;;;;;;22.20;60.06;100766.16;4194460;28;20023;-75
2023/09/17 03:08:41;;;;;;;;;;;;;;;22.19;60.06;100761.78;4194544;28;19972;-75
2023/09/17 03:10:42;;;;;;;;;;;;;;;22.21;60.02;100767.84;4194544;28;19928;-75
2023/09/17 03:12:46;;;;;;;;;;;;;;;22.17;60.08;100767.25;4194599;28;20506;-75
2023/09/17 03:14:47;;;;;;;;;;;;;;;22.17;60.26;100769.91;4194585;28;20377;-75
2023/09/17 03:16:49;;;;;;;;;;;;;;;22.17;60.32;100766.41;4194494;28;19929;-75
2023/09/17 03:18:51;;;;;;;;;;;;;;;22.18;60.42;100768.94;4194571;28;20288;-75
2023/09/17 03:20:53;;;;;;;;;;;;;;;22.18;60.01;100768.13;4193813;27;19925;-75
2023/09/17 03:22:57;;;;;;;;;;;;;;;22.18;60.40;100762.75;4194622;28;19924;-75
2023/09/17 03:24:58;;;;;;;;;;;;;;;22.17;60.31;100763.72;4194557;28;20421;-75
2023/09/17 03:27:05;;;;;;;;;;;;;;;22.17;60.11;100763.72;4194593;28;20300;-74
2023/09/17 03:29:07;;;;;;;;;;;;;;;22.15;60.36;100758.50;4194367;28;19935;-74
2023/09/17 03:31:09;;;;;;;;;;;;;;;22.15;60.22;100761.19;4194358;28;19929;-75
2023/09/17 03:33:13;;;;;;;;;;;;;;;22.16;59.70;100760.22;4194180;28;19974;-75
2023/09/17 03:35:15;;;;;;;;;;;;;;;22.18;60.01;100758.22;4193901;28;19971;-74
2023/09/17 03:37:17;;;;;;;;;;;;;;;22.17;59.98;100758.38;4194421;28;19924;-73
2023/09/17 03:39:18;;;;;;;;;;;;;;;22.17;60.13;100761.06;4194222;28;19924;-74
2023/09/17 03:41:20;;;;;;;;;;;;;;;22.18;59.73;100762.75;4195708;28;19931;-74
2023/09/17 03:43:22;;;;;;;;;;;;;;;22.14;60.43;100753.25;4200072;28;19930;-74
2023/09/17 03:45:24;;;;;;;;;;;;;;;22.13;60.37;100751.59;4182004;28;19932;-75
2023/09/17 03:47:25;;;;;;;;;;;;;;;22.13;60.31;100756.94;4199925;28;19925;-74
2023/09/17 03:49:27;;;;;;;;;;;;;;;22.10;60.47;100751.81;4199573;28;19973;-74
2023/09/17 03:51:30;;;;;;;;;;;;;;;22.11;60.44;100754.38;4199741;28;19932;-74
2023/09/17 03:53:32;;;;;;;;;;;;;;;22.09;60.64;100751.00;4199735;28;19928;-74
2023/09/17 03:55:34;;;;;;;;;;;;;;;22.09;60.58;100745.63;4199868;28;19943;-73
2023/09/17 03:57:37;;;;;;;;;;;;;;;22.09;60.54;100744.75;4199782;28;19924;-75
2023/09/17 03:59:39;;;;;;;;;;;;;;;22.10;60.49;100749.16;4199769;28;19925;-75
2023/09/17 04:01:40;;;;;;;;;;;;;;;22.09;60.54;100750.13;4215132;28;19924;-75
2023/09/17 04:03:42;;;;;;;;;;;;;;;22.09;60.57;100747.44;4199296;28;20366;-75
2023/09/17 04:05:44;;;;;;;;;;;;;;;22.08;60.70;100751.97;4199736;28;19924;-74
2023/09/17 04:07:46;;;;;;;;;;;;;;;22.09;60.51;100750.13;4199673;28;20004;-75
2023/09/17 04:09:51;;;;;;;;;;;;;;;22.09;60.45;100750.13;4199647;28;20376;-74
2023/09/17 04:11:52;;;;;;;;;;;;;;;22.07;60.47;100755.63;4199666;28;19928;-75
2023/09/17 04:13:54;;;;;;;;;;;;;;;22.06;60.68;100751.22;4199586;28;20434;-75
2023/09/17 04:15:56;;;;;;;;;;;;;;;22.06;60.59;100748.56;4199549;28;19931;-75
2023/09/17 04:17:58;;;;;;;;;;;;;;;22.07;60.52;100747.59;4199496;28;20403;-74
2023/09/17 04:20:00;;;;;;;;;;;;;;;22.06;60.63;100751.22;4199428;27;19973;-74
2023/09/17 04:22:02;;;;;;;;;;;;;;;22.05;60.66;100744.16;4199320;28;20000;-75
2023/09/17 04:24:04;;;;;;;;;;;;;;;22.05;60.59;100754.88;4199526;28;20298;-75
2023/09/17 04:26:05;;;;;;;;;;;;;;;22.06;60.61;100761.94;4199556;28;19925;-75
2023/09/17 04:28:08;;;;;;;;;;;;;;;22.05;60.65;100752.22;4199365;28;19969;-75
2023/09/17 04:30:10;;;;;;;;;;;;;;;22.06;60.77;100756.59;4199424;28;19928;-76
2023/09/17 04:32:12;;;;;;;;;;;;;;;22.06;60.44;100759.28;4199255;28;19924;-75
2023/09/17 04:34:14;;;;;;;;;;;;;;;22.04;60.75;100758.53;4199084;28;20389;-75
2023/09/17 04:36:15;;;;;;;;;;;;;;;22.04;60.74;100752.34;4199173;28;19924;-75
2023/09/17 04:38:17;;;;;;;;;;;;;;;22.02;60.55;100756.00;4199295;28;20334;-75
2023/09/17 04:40:25;;;;;;;;;;;;;;;22.02;60.74;100749.81;4199418;27;20361;-75
2023/09/17 04:42:28;;;;;;;;;;;;;;;22.03;60.47;100748.81;4199156;28;19952;-75
2023/09/17 04:44:29;;;;;;;;;;;;;;;22.05;60.65;100746.84;4181531;28;19942;-75
2023/09/17 04:46:31;;;;;;;;;;;;;;;22.04;60.53;100741.63;4214662;28;19924;-76
2023/09/17 04:48:33;;;;;;;;;;;;;;;22.04;60.57;100747.00;4198870;28;20370;-75
2023/09/17 04:50:35;;;;;;;;;;;;;;;22.01;60.40;100737.38;4199240;28;19924;-76
2023/09/17 04:52:37;;;;;;;;;;;;;;;22.00;60.60;100738.34;4198187;28;19931;-75
2023/09/17 04:54:39;;;;;;;;;;;;;;;22.02;60.33;100739.09;4195836;28;20011;-75
2023/09/17 04:56:40;;;;;;;;;;;;;;;22.01;60.82;100743.59;4196607;28;19931;-76
2023/09/17 04:58:42;;;;;;;;;;;;;;;22.01;60.45;100748.09;4196216;28;20338;-75
2023/09/17 05:00:44;;;;;;;;;;;;;;;22.00;60.88;100744.56;4196402;28;19925;-76
2023/09/17 05:02:47;;;;;;;;;;;;;;;22.00;60.80;100749.06;4196231;27;20019;-75
2023/09/17 05:04:49;;;;;;;;;;;;;;;22.00;60.91;100746.41;4178480;28;19928;-75
2023/09/17 05:06:51;;;;;;;;;;;;;;;21.99;60.80;100744.69;4195553;28;19925;-76
2023/09/17 05:08:52;;;;;;;;;;;;;;;21.99;60.66;100748.25;4196324;28;19975;-75
2023/09/17 05:10:54;;;;;;;;;;;;;;;21.99;60.69;100748.25;4196104;28;19924;-75
2023/09/17 05:12:56;;;;;;;;;;;;;;;21.99;60.87;100750.03;4196070;28;19993;-75
2023/09/17 05:14:58;;;;;;;;;;;;;;;21.98;60.73;100751.88;4196297;28;19924;-75
2023/09/17 05:16:59;;;;;;;;;;;;;;;21.98;60.93;100753.69;4195870;28;19928;-75
2023/09/17 05:19:03;;;;;;;;;;;;;;;21.97;60.76;100749.31;4196085;28;19925;-75
2023/09/17 05:21:06;;;;;;;;;;;;;;;21.96;60.89;100750.31;4195996;28;19925;-75
2023/09/17 05:23:07;;;;;;;;;;;;;;;21.96;60.94;100753.84;4195921;28;19924;-76
2023/09/17 05:25:09;;;;;;;;;;;;;;;21.96;60.76;100753.00;4178487;28;19983;-75
2023/09/17 05:27:15;;;;;;;;;;;;;;;21.95;60.74;100753.97;4196144;28;20377;-75
2023/09/17 05:29:17;;;;;;;;;;;;;;;21.94;61.04;100761.13;4195965;28;19930;-74
2023/09/17 05:31:19;;;;;;;;;;;;;;;21.94;60.88;100761.13;4195438;28;20024;-75
2023/09/17 05:33:21;;;;;;;;;;;;;;;21.94;61.07;100760.31;4178149;28;20396;-76
2023/09/17 05:35:23;;;;;;;;;;;;;;;21.93;61.02;100755.91;4196083;28;19932;-76
2023/09/17 05:37:25;;;;;;;;;;;;;;;21.94;60.80;100752.25;4195968;28;20019;-75
2023/09/17 05:39:27;;;;;;;;;;;;;;;21.93;60.84;100755.91;4195766;28;19969;-75
2023/09/17 05:41:28;;;;;;;;;;;;;;;21.92;60.97;100752.41;4195926;28;20370;-75
2023/09/17 05:43:30;;;;;;;;;;;;;;;21.93;61.02;100750.56;4195885;28;19928;-75
2023/09/17 05:45:31;;;;;;;;;;;;;;;21.92;60.85;100755.09;4195439;28;19924;-75
2023/09/17 05:47:33;;;;;;;;;;;;;;;21.92;60.59;100746.19;4195882;28;20308;-75
2023/09/17 05:49:35;;;;;;;;;;;;;;;21.93;60.44;100750.56;4178057;28;20417;-75
2023/09/17 05:51:37;;;;;;;;;;;;;;;21.91;60.68;100747.16;4195891;28;19925;-75
2023/09/17 05:53:39;;;;;;;;;;;;;;;21.92;60.72;100748.84;4195520;28;19932;-75
2023/09/17 05:55:40;;;;;;;;;;;;;;;21.93;60.81;100754.06;4195802;28;19932;-76
2023/09/17 05:57:42;;;;;;;;;;;;;;;21.90;60.80;100742.81;4195537;28;19924;-76
2023/09/17 05:59:45;;;;;;;;;;;;;;;21.89;60.81;100746.44;4195369;28;20392;-75
2023/09/17 06:01:47;;;;;;;;;;;;;;;21.89;60.89;100757.16;4195506;28;19940;-76
2023/09/17 06:03:48;;;;;;;;;;;;;;;21.88;60.61;100744.75;4195547;28;20393;-76
2023/09/17 06:05:53;;;;;;;;;;;;;;;21.87;60.88;100746.56;4195319;28;19929;-76
2023/09/17 06:07:54;;;;;;;;;;;;;;;21.88;60.99;100739.38;4195337;28;19935;-76
2023/09/17 06:09:56;;;;;;;;;;;;;;;21.86;61.13;100745.72;4195414;28;19928;-76
2023/09/17 06:11:58;;;;;;;;;;;;;;;21.86;60.70;100744.88;4195576;28;19931;-76
2023/09/17 06:13:59;;;;;;;;;;;;;;;21.86;60.88;100745.72;4195165;28;19969;-76
2023/09/17 06:16:01;;;;;;;;;;;;;;;21.84;60.77;100739.63;4195105;28;19925;-76
2023/09/17 06:18:03;;;;;;;;;;;;;;;21.84;60.58;100742.31;4195201;28;19950;-76
2023/09/17 06:20:05;;;;;;;;;;;;;;;21.85;61.03;100746.69;4210599;27;19928;-76
2023/09/17 06:22:07;;;;;;;;;;;;;;;21.85;60.72;100740.50;4195164;28;19924;-76
2023/09/17 06:24:09;;;;;;;;;;;;;;;21.85;61.06;100737.81;4195322;28;19968;-76
2023/09/17 06:26:10;;;;;;;;;;;;;;;21.85;61.29;100746.69;4195139;28;19928;-76
2023/09/17 06:28:12;;;;;;;;;;;;;;;21.85;61.10;100760.06;4195192;28;19930;-76
2023/09/17 06:30:14;;;;;;;;;;;;;;;21.85;61.17;100765.44;4195107;28;19928;-76
2023/09/17 06:32:15;;;;;;;;;;;;;;;21.84;61.14;100770.94;4195288;28;20011;-76
2023/09/17 06:34:17;;;;;;;;;;;;;;;21.85;60.94;100764.59;4194972;28;19924;-76
2023/09/17 06:36:19;;;;;;;;;;;;;;;21.85;61.17;100761.91;4195193;28;19931;-76
2023/09/17 06:38:21;;;;;;;;;;;;;;;21.85;61.08;100762.75;4195179;28;19928;-76
2023/09/17 06:40:22;;;;;;;;;;;;;;;21.85;60.98;100767.28;4195069;28;19993;-75
2023/09/17 06:42:24;;;;;;;;;;;;;;;21.84;61.35;100770.94;4177289;28;19936;-76
2023/09/17 06:44:26;;;;;;;;;;;;;;;21.83;61.23;100761.19;4194490;28;19925;-76
2023/09/17 06:46:28;;;;;;;;;;;;;;;21.81;61.32;100752.41;4194753;28;19985;-75
2023/09/17 06:48:30;;;;;;;;;;;;;;;21.81;61.41;100758.66;4195027;28;20008;-75
2023/09/17 06:50:31;;;;;;;;;;;;;;;21.83;61.29;100758.50;4194815;28;19924;-76
2023/09/17 06:52:33;;;;;;;;;;;;;;;21.84;61.05;100760.22;4195107;28;19964;-75
2023/09/17 06:54:35;;;;;;;;;;;;;;;21.82;61.33;100757.69;4194912;28;20410;-75
2023/09/17 06:56:36;;;;;;;;;;;;;;;21.81;61.35;100761.31;4194932;28;20424;-75
2023/09/17 06:58:38;;;;;;;;;;;;;;;21.83;60.96;100755.84;4194367;28;20401;-75
2023/09/17 07:00:40;;;;;;;;;;;;;;;21.83;61.17;100755.84;4194833;28;19925;-75
2023/09/17 07:02:42;;;;;;;;;;;;;;;21.83;61.13;100756.66;4194682;28;20331;-75
2023/09/17 07:04:44;;;;;;;;;;;;;;;21.84;60.98;100768.25;4194588;28;19931;-75
2023/09/17 07:06:45;;;;;;;;;;;;;;;21.83;61.12;100761.19;4194562;28;19924;-75
2023/09/17 07:08:47;;;;;;;;;;;;;;;21.82;61.08;100768.38;4194745;28;20000;-75
2023/09/17 07:10:49;;;;;;;;;;;;;;;21.85;60.94;100772.63;4194898;27;20297;-75
2023/09/17 07:12:51;;;;;;;;;;;;;;;21.84;60.91;100770.94;4194523;28;19932;-76
2023/09/17 07:14:52;;;;;;;;;;;;;;;21.84;61.24;100765.56;4194574;28;19956;-75
2023/09/17 07:16:54;;;;;;;;;;;;;;;21.83;61.34;100772.72;4193796;28;19992;-75
2023/09/17 07:18:55;;;;;;;;;;;;;;;21.82;61.26;100760.34;4194452;27;19931;-75
2023/09/17 07:20:57;;;;;;;;;;;;;;;21.83;61.17;100766.53;4194289;27;19924;-75
2023/09/17 07:22:59;;;;;;;;;;;;;;;21.81;61.22;100760.47;4194271;28;19925;-75
2023/09/17 07:25:04;;;;;;;;;;;;;;;21.82;61.03;100756.81;4194322;28;20258;-76
2023/09/17 07:27:06;;;;;;;;;;;;;;;21.81;60.74;100755.97;4194299;28;20007;-75
2023/09/17 07:29:07;;;;;;;;;;;;;;;21.85;60.93;100754.72;4209886;28;19924;-75
2023/09/17 07:31:11;;;;;;;;;;;;;;;21.84;61.17;100753.03;4209968;28;19924;-75
2023/09/17 07:33:13;;;;;;;;;;;;;;;21.75;61.01;100748.44;4194359;28;19931;-75
2023/09/17 07:35:16;;;;;;;;;;;;;;;21.83;61.12;100753.16;4194262;28;19925;-76
2023/09/17 07:37:19;;;;;;;;;;;;;;;21.81;61.31;100752.41;4194299;28;19928;-76
2023/09/17 07:39:21;;;;;;;;;;;;;;;21.80;61.07;100745.38;4176856;28;20444;-75
2023/09/17 07:41:22;;;;;;;;;;;;;;;21.80;61.24;100758.75;4194111;28;19931;-75
2023/09/17 07:43:24;;;;;;;;;;;;;;;21.80;61.34;100767.66;4194303;28;19955;-75
2023/09/17 07:45:26;;;;;;;;;;;;;;;21.81;61.32;100771.16;4194564;28;19969;-75
2023/09/17 07:47:27;;;;;;;;;;;;;;;21.80;61.49;100777.50;4194255;28;19936;-75
2023/09/17 07:49:29;;;;;;;;;;;;;;;21.80;61.30;100773.00;4209831;28;19947;-75
2023/09/17 07:51:31;;;;;;;;;;;;;;;21.80;61.23;100764.97;4194226;28;19928;-75
2023/09/17 07:53:35;;;;;;;;;;;;;;;21.80;61.37;100773.00;4194335;28;20373;-76
2023/09/17 07:55:37;;;;;;;;;;;;;;;21.82;61.44;100764.84;4193836;28;20398;-75
2023/09/17 07:57:39;;;;;;;;;;;;;;;21.81;61.19;100771.16;4194191;28;19944;-75
2023/09/17 07:59:40;;;;;;;;;;;;;;;21.81;61.32;100760.47;4194084;28;20405;-75
2023/09/17 08:01:42;;;;;;;;;;;;;;;21.81;60.90;100764.00;4194272;28;19924;-75
2023/09/17 08:03:44;;;;;;;;;;;;;;;21.81;61.17;100764.00;4194150;28;19932;-75
2023/09/17 08:05:46;;;;;;;;;;;;;;;21.81;61.32;100764.00;4193967;28;19924;-75
2023/09/17 08:07:48;;;;;;;;;;;;;;;21.82;61.24;100768.38;4194179;28;19928;-75
2023/09/17 08:09:49;;;;;;;;;;;;;;;21.82;61.11;100773.75;4194135;28;19924;-75
2023/09/17 08:11:51;;;;;;;;;;;;;;;21.83;61.36;100775.41;4193613;28;20339;-75
2023/09/17 08:13:53;;;;;;;;;;;;;;;21.84;61.43;100773.59;4194069;28;19925;-75
2023/09/17 08:15:56;;;;;;;;;;;;;;;21.86;61.12;100780.53;4194100;28;19960;-74
2023/09/17 08:17:58;;;;;;;;;;;;;;;21.87;61.15;100776.00;4193882;28;19925;-74
2023/09/17 08:19:59;;;;;;;;;;;;;;;21.88;61.20;100782.22;4193658;27;20031;-76
2023/09/17 08:22:01;;;;;;;;;;;;;;;21.89;60.99;100781.25;4193918;28;19928;-75
2023/09/17 08:24:08;;;;;;;;;;;;;;;21.89;61.29;100787.44;4194019;28;19932;-75
2023/09/17 08:26:10;;;;;;;;;;;;;;;21.90;61.06;100788.31;4209108;28;20385;-74
2023/09/17 08:28:15;;;;;;;;;;;;;;;21.91;60.91;100796.22;4195426;28;20448;-75
2023/09/17 08:30:16;;;;;;;;;;;;;;;21.92;61.15;100791.69;4196976;28;19931;-74
2023/09/17 08:32:18;;;;;;;;;;;;;;;21.91;61.22;100782.84;4196943;27;19928;-75
2023/09/17 08:34:25;;;;;;;;;;;;;;;21.91;60.92;100776.59;4197024;28;19924;-74
2023/09/17 08:36:27;;;;;;;;;;;;;;;21.92;60.95;100779.19;4196750;28;19951;-75
2023/09/17 08:38:29;;;;;;;;;;;;;;;21.91;61.03;100773.94;4196757;28;19924;-75
2023/09/17 08:40:34;;;;;;;;;;;;;;;21.91;61.06;100768.56;4178442;28;19929;-74
2023/09/17 08:42:41;;;;;;;;;;;;;;;21.91;60.98;100779.28;4196609;28;19924;-74
2023/09/17 08:44:42;;;;;;;;;;;;;;;21.93;60.94;100788.03;4196469;28;19924;-75
2023/09/17 08:46:44;;;;;;;;;;;;;;;21.94;61.21;100787.91;4196550;28;19933;-74
2023/09/17 08:48:47;;;;;;;;;;;;;;;21.86;60.93;100760.94;4196808;27;20270;-74
2023/09/17 08:50:50;;;;;;;;;;;;;;;21.92;61.31;100772.94;4196677;28;20506;-75
2023/09/17 08:52:53;;;;;;;;;;;;;;;21.93;60.98;100783.53;4196693;28;19956;-74
2023/09/17 08:54:55;;;;;;;;;;;;;;;21.92;61.01;100779.19;4196351;28;20039;-75
2023/09/17 08:57:03;;;;;;;;;;;;;;;21.91;61.00;100769.44;4196456;28;19963;-76
2023/09/17 08:59:12;;;;;;;;;;;;;;;21.93;61.20;100780.84;4196396;28;19924;-74
2023/09/17 09:01:21;;;;;;;;;;;;;;;21.93;61.09;100774.66;4196323;28;19925;-75
2023/09/17 09:03:25;;;;;;;;;;;;;;;21.95;61.15;100780.75;4196400;28;19959;-75
2023/09/17 09:05:27;;;;;;;;;;;;;;;21.95;61.08;100783.44;4196267;28;19924;-75
2023/09/17 09:07:29;;;;;;;;;;;;;;;21.96;61.24;100788.66;4196355;28;19931;-75
2023/09/17 09:09:32;;;;;;;;;;;;;;;21.96;61.06;100785.13;4196142;28;19924;-75
2023/09/17 09:11:36;;;;;;;;;;;;;;;21.97;60.76;100785.00;4196044;28;20024;-76
2023/09/17 09:13:38;;;;;;;;;;;;;;;21.97;60.80;100782.31;4196142;28;19924;-75
2023/09/17 09:15:41;;;;;;;;;;;;;;;21.98;60.87;100775.13;4196030;28;19925;-75
2023/09/17 09:17:42;;;;;;;;;;;;;;;21.98;61.03;100765.28;4196112;28;19924;-75
2023/09/17 09:19:44;;;;;;;;;;;;;;;22.00;60.75;100763.31;4196134;28;19928;-75
2023/09/17 09:21:51;;;;;;;;;;;;;;;22.01;60.77;100751.63;4196125;28;19972;-75
2023/09/17 09:23:53;;;;;;;;;;;;;;;22.02;60.64;100747.97;4195652;28;19924;-75
2023/09/17 09:25:54;;;;;;;;;;;;;;;22.04;60.30;100761.22;4196142;28;19950;-75
2023/09/17 09:28:00;;;;;;;;;;;;;;;22.06;60.86;100763.78;4195912;28;19925;-75
2023/09/17 09:30:04;;;;;;;;;;;;;;;22.07;60.41;100763.66;4195873;28;20030;-76
2023/09/17 09:32:06;;;;;;;;;;;;;;;22.07;60.74;100766.34;4195844;28;20290;-75
2023/09/17 09:34:12;;;;;;;;;;;;;;;22.08;60.58;100762.69;4196062;28;20007;-75
2023/09/17 09:36:13;;;;;;;;;;;;;;;22.08;60.89;100761.81;4196071;28;19924;-75
2023/09/17 09:38:15;;;;;;;;;;;;;;;22.08;60.88;100751.97;4177838;28;20359;-75
2023/09/17 09:40:17;;;;;;;;;;;;;;;22.07;60.92;100763.66;4194915;28;20027;-75
2023/09/17 09:42:20;;;;;;;;;;;;;;;22.08;60.66;100756.44;4195999;28;19925;-76
2023/09/17 09:44:24;;;;;;;;;;;;;;;22.09;60.63;100761.72;4195868;28;20440;-75
2023/09/17 09:46:32;;;;;;;;;;;;;;;22.08;60.77;100754.66;4195631;28;19928;-75
2023/09/17 09:48:38;;;;;;;;;;;;;;;22.09;60.79;100751.00;4195711;28;20301;-74
2023/09/17 09:50:42;;;;;;;;;;;;;;;22.10;60.66;100746.47;4195757;28;19962;-74
2023/09/17 09:52:43;;;;;;;;;;;;;;;22.11;61.01;100743.66;4195279;28;19925;-75
2023/09/17 09:54:46;;;;;;;;;;;;;;;22.13;61.04;100744.38;4195809;28;19970;-75
2023/09/17 09:56:48;;;;;;;;;;;;;;;22.12;60.86;100750.72;4195826;28;19925;-75
2023/09/17 09:58:50;;;;;;;;;;;;;;;22.14;60.82;100754.13;4195565;28;19952;-74
2023/09/17 10:00:53;;;;;;;;;;;;;;;22.16;60.72;100754.84;4195631;28;19929;-75
2023/09/17 10:02:55;;;;;;;;;;;;;;;22.18;60.92;100749.34;4195596;28;20027;-74
2023/09/17 10:04:57;;;;;;;;;;;;;;;22.17;60.84;100735.09;4195695;28;20317;-74
2023/09/17 10:06:59;;;;;;;;;;;;;;;22.20;60.49;100722.44;4195270;28;20377;-75
2023/09/17 10:09:09;;;;;;;;;;;;;;;22.20;60.83;100720.63;4195445;28;19924;-74
2023/09/17 10:11:16;;;;;;;;;;;;;;;22.19;60.59;100716.25;4195399;28;20289;-74
2023/09/17 10:13:18;;;;;;;;;;;;;;;22.21;60.71;100710.75;4195310;28;19987;-74
2023/09/17 10:15:20;;;;;;;;;;;;;;;22.23;60.61;100704.28;4195325;28;20309;-74
2023/09/17 10:17:22;;;;;;;;;;;;;;;22.24;60.39;100707.81;4195169;28;19954;-75
2023/09/17 10:19:25;;;;;;;;;;;;;;;22.24;60.63;100705.97;4195556;27;20266;-75
2023/09/17 10:21:27;;;;;;;;;;;;;;;22.24;60.57;100708.66;4194892;28;19928;-75
2023/09/17 10:23:31;;;;;;;;;;;;;;;22.27;60.29;100705.72;4195367;28;19928;-74
2023/09/17 10:25:33;;;;;;;;;;;;;;;22.28;60.64;100701.22;4195507;28;19947;-75
2023/09/17 10:27:38;;;;;;;;;;;;;;;22.29;60.75;100694.88;4195426;27;19925;-76
2023/09/17 10:29:43;;;;;;;;;;;;;;;22.28;60.92;100687.81;4195394;27;19924;-76